PRIVATE WETTERSTATION BILLIGHEIM-ALLFELD                       ZURCK
Wetterdaten: Samstag, 26.07.2014
Datum Zeit Temp. A. Temp. A. min Temp. A. max Feuchte A. Luftdruck Regen Wind Richtung Richtung Sonnenschein ET Solar Taupunkt Windchill Windben Empfang
26.07.2014 00:00 17,3 C 17,3 C 17,5 C 84 % 1010,7 hPa 0,0 l/m 0,0 km/h (0 Bft) N 0 0 min 0,025 mm 0 W/m 14,6 C 17,3 C 0,0 km/h (0 Bft) 100 %
26.07.2014 00:10 17,0 C 17,0 C 17,3 C 84 % 1010,6 hPa 0,0 l/m 0,0 km/h (0 Bft) N 0 0 min 0,000 mm 0 W/m 14,3 C 17,0 C 0,0 km/h (0 Bft) 100 %
26.07.2014 00:20 16,8 C 16,8 C 17,0 C 85 % 1010,7 hPa 0,0 l/m 0,0 km/h (0 Bft) N 0 0 min 0,000 mm 0 W/m 14,3 C 16,8 C 0,0 km/h (0 Bft) 100 %
26.07.2014 00:30 16,7 C 16,7 C 16,8 C 85 % 1010,7 hPa 0,0 l/m 0,0 km/h (0 Bft) N-NW 337 0 min 0,000 mm 0 W/m 14,2 C 16,7 C 1,6 km/h (1 Bft) 99 %
26.07.2014 00:40 16,6 C 16,6 C 16,7 C 86 % 1010,8 hPa 0,0 l/m 0,0 km/h (0 Bft) N-NW 337 0 min 0,000 mm 0 W/m 14,2 C 16,6 C 1,6 km/h (1 Bft) 100 %
26.07.2014 00:50 16,5 C 16,5 C 16,6 C 86 % 1010,8 hPa 0,0 l/m 0,0 km/h (0 Bft) N 360 0 min 0,000 mm 0 W/m 14,1 C 16,5 C 3,2 km/h (1 Bft) 100 %
26.07.2014 01:00 16,4 C 16,4 C 16,5 C 86 % 1010,7 hPa 0,0 l/m 0,0 km/h (0 Bft) N 0 0 min 0,025 mm 0 W/m 14,1 C 16,4 C 0,0 km/h (0 Bft) 100 %
26.07.2014 01:10 16,3 C 16,3 C 16,4 C 86 % 1010,8 hPa 0,0 l/m 0,0 km/h (0 Bft) N 0 0 min 0,000 mm 0 W/m 14,0 C 16,3 C 0,0 km/h (0 Bft) 100 %
26.07.2014 01:20 16,2 C 16,2 C 16,3 C 86 % 1010,8 hPa 0,0 l/m 0,0 km/h (0 Bft) N 360 0 min 0,000 mm 0 W/m 13,9 C 16,2 C 1,6 km/h (1 Bft) 100 %
26.07.2014 01:30 16,1 C 16,1 C 16,2 C 86 % 1010,8 hPa 0,0 l/m 0,0 km/h (0 Bft) N 0 0 min 0,000 mm 0 W/m 13,8 C 16,1 C 0,0 km/h (0 Bft) 100 %
26.07.2014 01:40 16,1 C 16,1 C 16,1 C 86 % 1010,9 hPa 0,0 l/m 0,0 km/h (0 Bft) N 0 0 min 0,000 mm 0 W/m 13,8 C 16,1 C 0,0 km/h (0 Bft) 100 %
26.07.2014 01:50 16,0 C 16,0 C 16,1 C 86 % 1010,8 hPa 0,0 l/m 0,0 km/h (0 Bft) N 0 0 min 0,000 mm 0 W/m 13,7 C 16,0 C 0,0 km/h (0 Bft) 100 %
26.07.2014 02:00 15,9 C 15,9 C 16,0 C 86 % 1010,8 hPa 0,0 l/m 0,0 km/h (0 Bft) N 360 0 min 0,000 mm 0 W/m 13,6 C 15,9 C 1,6 km/h (1 Bft) 100 %
26.07.2014 02:10 15,8 C 15,8 C 15,9 C 87 % 1010,9 hPa 0,0 l/m 0,0 km/h (0 Bft) N 0 0 min 0,000 mm 0 W/m 13,6 C 15,8 C 0,0 km/h (0 Bft) 100 %
26.07.2014 02:20 15,8 C 15,8 C 15,9 C 87 % 1010,8 hPa 0,0 l/m 0,0 km/h (0 Bft) N 0 0 min 0,000 mm 0 W/m 13,6 C 15,8 C 0,0 km/h (0 Bft) 100 %
26.07.2014 02:30 15,8 C 15,8 C 15,8 C 86 % 1010,8 hPa 0,0 l/m 0,0 km/h (0 Bft) N 360 0 min 0,000 mm 0 W/m 13,5 C 15,8 C 1,6 km/h (1 Bft) 100 %
26.07.2014 02:40 15,7 C 15,7 C 15,8 C 87 % 1010,8 hPa 0,0 l/m 0,0 km/h (0 Bft) N 360 0 min 0,000 mm 0 W/m 13,5 C 15,7 C 3,2 km/h (1 Bft) 100 %
26.07.2014 02:50 15,6 C 15,6 C 15,7 C 87 % 1010,7 hPa 0,0 l/m 0,0 km/h (0 Bft) N 0 0 min 0,000 mm 0 W/m 13,4 C 15,6 C 0,0 km/h (0 Bft) 100 %
26.07.2014 03:00 15,6 C 15,6 C 15,6 C 87 % 1010,6 hPa 0,0 l/m 0,0 km/h (0 Bft) N 0 0 min 0,000 mm 0 W/m 13,4 C 15,6 C 0,0 km/h (0 Bft) 100 %
26.07.2014 03:10 15,5 C 15,4 C 15,6 C 87 % 1010,5 hPa 0,0 l/m 0,0 km/h (0 Bft) N 0 0 min 0,000 mm 0 W/m 13,3 C 15,5 C 0,0 km/h (0 Bft) 100 %
26.07.2014 03:20 15,3 C 15,3 C 15,4 C 87 % 1010,6 hPa 0,0 l/m 0,0 km/h (0 Bft) N 0 0 min 0,000 mm 0 W/m 13,1 C 15,3 C 0,0 km/h (0 Bft) 100 %
26.07.2014 03:30 15,1 C 15,1 C 15,3 C 87 % 1010,5 hPa 0,0 l/m 0,0 km/h (0 Bft) N 0 0 min 0,000 mm 0 W/m 13,0 C 15,1 C 0,0 km/h (0 Bft) 100 %
26.07.2014 03:40 15,1 C 15,1 C 15,2 C 87 % 1010,4 hPa 0,0 l/m 0,0 km/h (0 Bft) N 0 0 min 0,000 mm 0 W/m 13,0 C 15,1 C 0,0 km/h (0 Bft) 100 %
26.07.2014 03:50 15,1 C 15,1 C 15,1 C 87 % 1010,4 hPa 0,0 l/m 0,0 km/h (0 Bft) N 0 0 min 0,000 mm 0 W/m 13,0 C 15,1 C 0,0 km/h (0 Bft) 100 %
26.07.2014 04:00 14,9 C 14,9 C 15,1 C 87 % 1010,3 hPa 0,0 l/m 0,0 km/h (0 Bft) N 0 0 min 0,000 mm 0 W/m 12,8 C 14,9 C 0,0 km/h (0 Bft) 100 %
26.07.2014 04:10 14,8 C 14,8 C 14,9 C 87 % 1010,3 hPa 0,0 l/m 0,0 km/h (0 Bft) N 0 0 min 0,000 mm 0 W/m 12,7 C 14,8 C 0,0 km/h (0 Bft) 100 %
26.07.2014 04:20 14,7 C 14,7 C 14,8 C 87 % 1010,3 hPa 0,0 l/m 0,0 km/h (0 Bft) N 0 0 min 0,000 mm 0 W/m 12,6 C 14,7 C 0,0 km/h (0 Bft) 100 %
26.07.2014 04:30 14,6 C 14,6 C 14,7 C 87 % 1010,3 hPa 0,0 l/m 0,0 km/h (0 Bft) N 0 0 min 0,000 mm 0 W/m 12,5 C 14,6 C 0,0 km/h (0 Bft) 100 %
26.07.2014 04:40 14,6 C 14,6 C 14,6 C 87 % 1010,4 hPa 0,0 l/m 0,0 km/h (0 Bft) N 360 0 min 0,000 mm 0 W/m 12,5 C 14,6 C 1,6 km/h (1 Bft) 100 %
26.07.2014 04:50 14,6 C 14,6 C 14,6 C 87 % 1010,3 hPa 0,0 l/m 0,0 km/h (0 Bft) N 0 0 min 0,000 mm 0 W/m 12,5 C 14,6 C 0,0 km/h (0 Bft) 100 %
26.07.2014 05:00 14,4 C 14,4 C 14,6 C 87 % 1010,6 hPa 0,0 l/m 0,0 km/h (0 Bft) N 360 0 min 0,000 mm 0 W/m 12,3 C 14,4 C 1,6 km/h (1 Bft) 100 %
26.07.2014 05:10 14,2 C 14,2 C 14,4 C 87 % 1010,6 hPa 0,0 l/m 0,0 km/h (0 Bft) N 0 0 min 0,000 mm 0 W/m 12,1 C 14,2 C 0,0 km/h (0 Bft) 99 %
26.07.2014 05:20 14,1 C 14,1 C 14,2 C 87 % 1010,6 hPa 0,0 l/m 0,0 km/h (0 Bft) N 0 0 min 0,000 mm 0 W/m 12,0 C 14,1 C 0,0 km/h (0 Bft) 100 %
26.07.2014 05:30 14,0 C 14,0 C 14,1 C 87 % 1010,5 hPa 0,0 l/m 0,0 km/h (0 Bft) N 360 0 min 0,000 mm 0 W/m 11,9 C 14,0 C 1,6 km/h (1 Bft) 100 %
26.07.2014 05:40 13,9 C 13,9 C 14,0 C 87 % 1010,4 hPa 0,0 l/m 0,0 km/h (0 Bft) N 0 0 min 0,000 mm 0 W/m 11,8 C 13,9 C 0,0 km/h (0 Bft) 100 %
26.07.2014 05:50 13,8 C 13,8 C 13,9 C 87 % 1010,4 hPa 0,0 l/m 0,0 km/h (0 Bft) N 0 0 min 0,000 mm 0 W/m 11,7 C 13,8 C 0,0 km/h (0 Bft) 100 %
26.07.2014 06:00 13,8 C 13,8 C 13,8 C 87 % 1010,6 hPa 0,0 l/m 0,0 km/h (0 Bft) N 0 0 min 0,000 mm 5 W/m 11,7 C 13,8 C 0,0 km/h (0 Bft) 100 %
26.07.2014 06:10 13,8 C 13,8 C 13,8 C 87 % 1010,7 hPa 0,0 l/m 0,0 km/h (0 Bft) N 360 0 min 0,000 mm 11 W/m 11,7 C 13,8 C 3,2 km/h (1 Bft) 100 %
26.07.2014 06:20 13,8 C 13,8 C 13,8 C 87 % 1010,7 hPa 0,0 l/m 0,0 km/h (0 Bft) N 360 0 min 0,000 mm 16 W/m 11,7 C 13,8 C 1,6 km/h (1 Bft) 100 %
26.07.2014 06:30 13,9 C 13,8 C 13,9 C 87 % 1010,7 hPa 0,0 l/m 0,0 km/h (0 Bft) N 360 0 min 0,000 mm 23 W/m 11,8 C 13,9 C 1,6 km/h (1 Bft) 100 %
26.07.2014 06:40 13,9 C 13,9 C 13,9 C 87 % 1010,7 hPa 0,0 l/m 0,0 km/h (0 Bft) N 360 0 min 0,000 mm 25 W/m 11,8 C 13,9 C 3,2 km/h (1 Bft) 100 %
26.07.2014 06:50 13,9 C 13,9 C 13,9 C 87 % 1010,8 hPa 0,0 l/m 0,0 km/h (0 Bft) N 360 0 min 0,000 mm 25 W/m 11,8 C 13,9 C 1,6 km/h (1 Bft) 100 %
26.07.2014 07:00 13,9 C 13,9 C 13,9 C 87 % 1010,8 hPa 0,0 l/m 0,0 km/h (0 Bft) N 360 0 min 0,000 mm 30 W/m 11,8 C 13,9 C 3,2 km/h (1 Bft) 100 %
26.07.2014 07:10 14,0 C 13,9 C 14,0 C 87 % 1010,9 hPa 0,0 l/m 0,0 km/h (0 Bft) N 0 0 min 0,000 mm 33 W/m 11,9 C 14,0 C 0,0 km/h (0 Bft) 100 %
26.07.2014 07:20 14,0 C 14,0 C 14,1 C 87 % 1010,9 hPa 0,0 l/m 1,6 km/h (1 Bft) N 360 0 min 0,000 mm 42 W/m 11,9 C 14,0 C 3,2 km/h (1 Bft) 100 %
26.07.2014 07:30 14,1 C 14,0 C 14,1 C 87 % 1010,9 hPa 0,0 l/m 0,0 km/h (0 Bft) N 360 0 min 0,000 mm 51 W/m 12,0 C 14,1 C 1,6 km/h (1 Bft) 100 %
26.07.2014 07:40 14,3 C 14,1 C 14,3 C 87 % 1010,9 hPa 0,0 l/m 0,0 km/h (0 Bft) N 360 0 min 0,000 mm 51 W/m 12,2 C 14,3 C 3,2 km/h (1 Bft) 100 %
26.07.2014 07:50 14,6 C 14,3 C 14,6 C 87 % 1010,9 hPa 0,0 l/m 1,6 km/h (1 Bft) N 360 0 min 0,000 mm 56 W/m 12,5 C 14,6 C 3,2 km/h (1 Bft) 100 %
26.07.2014 08:00 14,9 C 14,6 C 14,9 C 87 % 1011,0 hPa 0,0 l/m 0,0 km/h (0 Bft) N 360 0 min 0,025 mm 67 W/m 12,8 C 14,9 C 3,2 km/h (1 Bft) 100 %
26.07.2014 08:10 15,1 C 14,9 C 15,1 C 87 % 1011,2 hPa 0,0 l/m 0,0 km/h (0 Bft) N 360 0 min 0,000 mm 98 W/m 13,0 C 15,1 C 3,2 km/h (1 Bft) 100 %
26.07.2014 08:20 15,4 C 15,1 C 15,4 C 87 % 1011,3 hPa 0,0 l/m 0,0 km/h (0 Bft) N 360 10 min 0,000 mm 176 W/m 13,2 C 15,4 C 3,2 km/h (1 Bft) 91 %
26.07.2014 08:30 15,8 C 15,4 C 15,8 C 87 % 1011,2 hPa 0,0 l/m 0,0 km/h (0 Bft) N 0 10 min 0,000 mm 287 W/m 13,6 C 15,8 C 0,0 km/h (0 Bft) 100 %
26.07.2014 08:40 16,4 C 15,8 C 16,4 C 87 % 1011,3 hPa 0,0 l/m 0,0 km/h (0 Bft) N 360 10 min 0,000 mm 350 W/m 14,2 C 16,4 C 1,6 km/h (1 Bft) 100 %
26.07.2014 08:50 17,2 C 16,5 C 17,2 C 87 % 1011,3 hPa 0,0 l/m 0,0 km/h (0 Bft) N 360 10 min 0,000 mm 323 W/m 15,0 C 17,2 C 4,8 km/h (1 Bft) 100 %
26.07.2014 09:00 18,2 C 17,2 C 18,2 C 87 % 1011,3 hPa 0,0 l/m 0,0 km/h (0 Bft) N 0 10 min 0,127 mm 396 W/m 16,0 C 18,2 C 0,0 km/h (0 Bft) 100 %
26.07.2014 09:10 18,8 C 18,2 C 18,8 C 86 % 1011,2 hPa 0,0 l/m 0,0 km/h (0 Bft) N 360 10 min 0,000 mm 454 W/m 16,4 C 18,8 C 3,2 km/h (1 Bft) 100 %
26.07.2014 09:20 19,6 C 18,9 C 19,6 C 85 % 1011,3 hPa 0,0 l/m 0,0 km/h (0 Bft) N 360 10 min 0,000 mm 496 W/m 17,0 C 19,6 C 3,2 km/h (1 Bft) 100 %
26.07.2014 09:30 19,6 C 19,6 C 19,7 C 83 % 1011,2 hPa 0,0 l/m 1,6 km/h (1 Bft) W 270 0 min 0,000 mm 104 W/m 16,6 C 19,6 C 6,4 km/h (2 Bft) 99 %
26.07.2014 09:40 19,0 C 19,0 C 19,5 C 84 % 1011,3 hPa 0,0 l/m 1,6 km/h (1 Bft) SW 225 0 min 0,000 mm 114 W/m 16,2 C 19,0 C 6,4 km/h (2 Bft) 100 %
26.07.2014 09:50 18,7 C 18,7 C 19,0 C 85 % 1011,3 hPa 0,0 l/m 1,6 km/h (1 Bft) SW 225 0 min 0,000 mm 120 W/m 16,1 C 18,7 C 6,4 km/h (2 Bft) 100 %
26.07.2014 10:00 18,5 C 18,5 C 18,7 C 85 % 1011,3 hPa 0,0 l/m 1,6 km/h (1 Bft) S-SW 202 0 min 0,102 mm 148 W/m 15,9 C 18,5 C 6,4 km/h (2 Bft) 100 %
26.07.2014 10:10 18,5 C 18,4 C 18,5 C 86 % 1011,4 hPa 0,0 l/m 1,6 km/h (1 Bft) S-SW 202 10 min 0,000 mm 169 W/m 16,1 C 18,5 C 8,0 km/h (2 Bft) 100 %
26.07.2014 10:20 18,6 C 18,5 C 18,6 C 85 % 1011,4 hPa 0,0 l/m 1,6 km/h (1 Bft) S-SW 202 10 min 0,000 mm 167 W/m 16,0 C 18,6 C 6,4 km/h (2 Bft) 100 %
26.07.2014 10:30 18,6 C 18,6 C 18,6 C 85 % 1011,3 hPa 0,0 l/m 1,6 km/h (1 Bft) S 180 10 min 0,000 mm 172 W/m 16,0 C 18,6 C 6,4 km/h (2 Bft) 100 %
26.07.2014 10:40 18,6 C 18,6 C 18,7 C 86 % 1011,4 hPa 0,0 l/m 0,0 km/h (0 Bft) S-SO 157 10 min 0,000 mm 186 W/m 16,2 C 18,6 C 6,4 km/h (2 Bft) 100 %
26.07.2014 10:50 18,7 C 18,6 C 18,7 C 85 % 1011,5 hPa 0,0 l/m 3,2 km/h (1 Bft) S 180 10 min 0,000 mm 216 W/m 16,1 C 18,7 C 8,0 km/h (2 Bft) 100 %
26.07.2014 11:00 18,7 C 18,7 C 18,8 C 85 % 1011,5 hPa 0,0 l/m 1,6 km/h (1 Bft) S-SO 157 10 min 0,102 mm 274 W/m 16,1 C 18,7 C 8,0 km/h (2 Bft) 100 %
26.07.2014 11:10 19,0 C 18,7 C 19,0 C 86 % 1011,6 hPa 0,0 l/m 1,6 km/h (1 Bft) S-SW 202 10 min 0,000 mm 439 W/m 16,6 C 19,0 C 8,0 km/h (2 Bft) 98 %
26.07.2014 11:20 19,6 C 19,0 C 19,6 C 84 % 1011,7 hPa 0,0 l/m 1,6 km/h (1 Bft) S-SW 202 10 min 0,000 mm 492 W/m 16,8 C 19,6 C 8,0 km/h (2 Bft) 98 %
26.07.2014 11:30 20,2 C 19,6 C 20,2 C 82 % 1011,7 hPa 0,0 l/m 3,2 km/h (1 Bft) S-SW 202 10 min 0,000 mm 571 W/m 17,0 C 20,2 C 9,7 km/h (2 Bft) 100 %
26.07.2014 11:40 20,8 C 20,2 C 20,8 C 79 % 1011,8 hPa 0,0 l/m 1,6 km/h (1 Bft) S-SW 202 10 min 0,000 mm 543 W/m 17,0 C 20,8 C 9,7 km/h (2 Bft) 100 %
26.07.2014 11:50 21,3 C 20,8 C 21,3 C 81 % 1011,8 hPa 0,0 l/m 1,6 km/h (1 Bft) S-SW 202 10 min 0,000 mm 647 W/m 17,9 C 21,3 C 8,0 km/h (2 Bft) 100 %
26.07.2014 12:00 22,0 C 21,3 C 22,0 C 77 % 1011,8 hPa 0,0 l/m 1,6 km/h (1 Bft) S-SW 202 10 min 0,305 mm 694 W/m 17,8 C 22,0 C 8,0 km/h (2 Bft) 100 %
26.07.2014 12:10 22,7 C 22,1 C 22,7 C 77 % 1011,8 hPa 0,0 l/m 3,2 km/h (1 Bft) S-SW 202 10 min 0,000 mm 742 W/m 18,5 C 22,7 C 11,3 km/h (2 Bft) 100 %
26.07.2014 12:20 23,3 C 22,7 C 23,3 C 73 % 1011,8 hPa 0,0 l/m 3,2 km/h (1 Bft) SW 225 10 min 0,000 mm 775 W/m 18,2 C 23,3 C 11,3 km/h (2 Bft) 100 %
26.07.2014 12:30 23,6 C 23,3 C 23,6 C 75 % 1011,9 hPa 0,0 l/m 1,6 km/h (1 Bft) SW 225 10 min 0,000 mm 853 W/m 18,9 C 23,6 C 16,1 km/h (3 Bft) 100 %
26.07.2014 12:40 24,0 C 23,6 C 24,0 C 71 % 1011,9 hPa 0,0 l/m 3,2 km/h (1 Bft) SW 225 10 min 0,000 mm 882 W/m 18,4 C 24,0 C 9,7 km/h (2 Bft) 100 %
26.07.2014 12:50 24,1 C 24,0 C 24,1 C 69 % 1011,9 hPa 0,0 l/m 3,2 km/h (1 Bft) S-SW 202 10 min 0,000 mm 849 W/m 18,0 C 24,1 C 12,9 km/h (3 Bft) 100 %
26.07.2014 13:00 24,2 C 24,1 C 24,2 C 70 % 1011,8 hPa 0,0 l/m 3,2 km/h (1 Bft) W-SW 247 10 min 0,432 mm 524 W/m 18,4 C 24,2 C 9,7 km/h (2 Bft) 100 %
26.07.2014 13:10 23,9 C 23,9 C 24,2 C 70 % 1011,8 hPa 0,0 l/m 1,6 km/h (1 Bft) S 180 10 min 0,000 mm 443 W/m 18,1 C 23,9 C 9,7 km/h (2 Bft) 100 %
26.07.2014 13:20 24,0 C 23,8 C 24,0 C 72 % 1011,8 hPa 0,0 l/m 3,2 km/h (1 Bft) W-SW 247 10 min 0,000 mm 663 W/m 18,6 C 24,0 C 11,3 km/h (2 Bft) 100 %
26.07.2014 13:30 24,4 C 24,0 C 24,4 C 69 % 1011,6 hPa 0,0 l/m 3,2 km/h (1 Bft) W-NW 292 10 min 0,000 mm 826 W/m 18,3 C 24,4 C 14,5 km/h (3 Bft) 100 %
26.07.2014 13:40 24,4 C 24,4 C 24,5 C 68 % 1011,5 hPa 0,0 l/m 4,8 km/h (1 Bft) SW 225 10 min 0,000 mm 656 W/m 18,1 C 24,4 C 11,3 km/h (2 Bft) 100 %
26.07.2014 13:50 24,2 C 24,2 C 24,4 C 70 % 1011,6 hPa 0,0 l/m 1,6 km/h (1 Bft) S-SW 202 10 min 0,000 mm 394 W/m 18,4 C 24,2 C 11,3 km/h (2 Bft) 100 %
26.07.2014 14:00 24,2 C 24,2 C 24,2 C 70 % 1011,6 hPa 0,0 l/m 4,8 km/h (1 Bft) S-SW 202 10 min 0,305 mm 432 W/m 18,4 C 24,2 C 11,3 km/h (2 Bft) 100 %
26.07.2014 14:10 24,2 C 24,2 C 24,2 C 68 % 1011,5 hPa 0,0 l/m 3,2 km/h (1 Bft) S-SW 202 10 min 0,000 mm 587 W/m 17,9 C 24,2 C 14,5 km/h (3 Bft) 100 %
26.07.2014 14:20 24,3 C 24,2 C 24,3 C 69 % 1011,5 hPa 0,0 l/m 8,0 km/h (2 Bft) S-SW 202 10 min 0,000 mm 589 W/m 18,2 C 23,9 C 17,7 km/h (3 Bft) 100 %
26.07.2014 14:30 24,2 C 24,2 C 24,3 C 66 % 1011,4 hPa 0,0 l/m 6,4 km/h (2 Bft) SW 225 10 min 0,000 mm 547 W/m 17,4 C 24,2 C 17,7 km/h (3 Bft) 100 %
26.07.2014 14:40 24,2 C 24,2 C 24,2 C 68 % 1011,5 hPa 0,0 l/m 9,7 km/h (2 Bft) S-SW 202 10 min 0,000 mm 612 W/m 17,9 C 23,3 C 22,5 km/h (4 Bft) 100 %
26.07.2014 14:50 24,2 C 24,2 C 24,3 C 68 % 1011,4 hPa 0,0 l/m 11,0 km/h (2 Bft) SW 227 10 min 0,000 mm 283 W/m 17,9 C 23,1 C 20,9 km/h (4 Bft) 98 %
26.07.2014 15:00 23,7 C 23,7 C 24,2 C 69 % 1011,6 hPa 0,0 l/m 8,1 km/h (2 Bft) SW 236 10 min 0,279 mm 248 W/m 17,7 C 23,2 C 20,9 km/h (4 Bft) 97 %
26.07.2014 15:10 23,6 C 23,6 C 23,7 C 69 % 1011,6 hPa 0,0 l/m 5,5 km/h (1 Bft) W-NW 292 10 min 0,000 mm 197 W/m 17,6 C 23,6 C 14,5 km/h (3 Bft) 97 %
26.07.2014 15:20 23,3 C 23,3 C 23,6 C 70 % 1011,5 hPa 0,0 l/m 7,3 km/h (2 Bft) W-SW 244 0 min 0,000 mm 120 W/m 17,5 C 23,0 C 19,3 km/h (3 Bft) 97 %
26.07.2014 15:30 23,0 C 23,0 C 23,3 C 71 % 1011,7 hPa 0,0 l/m 3,4 km/h (1 Bft) SW 232 0 min 0,000 mm 111 W/m 17,4 C 23,0 C 14,5 km/h (3 Bft) 98 %
26.07.2014 15:40 22,8 C 22,8 C 23,0 C 71 % 1011,6 hPa 0,0 l/m 6,3 km/h (2 Bft) W-SW 254 0 min 0,000 mm 134 W/m 17,3 C 22,8 C 17,7 km/h (3 Bft) 97 %
26.07.2014 15:50 22,7 C 22,7 C 22,8 C 72 % 1011,6 hPa 0,0 l/m 4,9 km/h (1 Bft) NW 304 10 min 0,000 mm 192 W/m 17,4 C 22,7 C 11,3 km/h (2 Bft) 98 %
26.07.2014 16:00 22,6 C 22,6 C 22,7 C 72 % 1011,7 hPa 0,0 l/m 7,3 km/h (2 Bft) W 269 10 min 0,127 mm 199 W/m 17,3 C 22,3 C 17,7 km/h (3 Bft) 97 %
26.07.2014 16:10 22,7 C 22,6 C 22,7 C 71 % 1011,6 hPa 0,0 l/m 4,7 km/h (1 Bft) W 259 10 min 0,000 mm 172 W/m 17,2 C 22,7 C 17,7 km/h (3 Bft) 98 %
26.07.2014 16:20 22,7 C 22,6 C 22,7 C 72 % 1011,4 hPa 0,0 l/m 5,0 km/h (1 Bft) NW 306 10 min 0,000 mm 207 W/m 17,4 C 22,7 C 17,7 km/h (3 Bft) 97 %
26.07.2014 16:30 22,6 C 22,6 C 22,7 C 67 % 1011,5 hPa 0,0 l/m 10,0 km/h (2 Bft) W 281 10 min 0,000 mm 248 W/m 16,2 C 21,5 C 25,7 km/h (4 Bft) 98 %
26.07.2014 16:40 22,5 C 22,5 C 22,6 C 62 % 1011,4 hPa 0,0 l/m 8,4 km/h (2 Bft) NW 306 10 min 0,000 mm 272 W/m 14,8 C 21,9 C 17,7 km/h (3 Bft) 98 %
26.07.2014 16:50 22,3 C 22,3 C 22,5 C 64 % 1011,3 hPa 0,0 l/m 8,0 km/h (2 Bft) NW 306 10 min 0,000 mm 258 W/m 15,2 C 21,8 C 19,3 km/h (3 Bft) 97 %
26.07.2014 17:00 22,2 C 22,2 C 22,3 C 63 % 1011,4 hPa 0,0 l/m 6,0 km/h (2 Bft) W-NW 300 10 min 0,178 mm 253 W/m 14,8 C 22,2 C 16,1 km/h (3 Bft) 98 %
26.07.2014 17:10 22,5 C 22,2 C 22,5 C 65 % 1011,4 hPa 0,0 l/m 2,6 km/h (1 Bft) NW 317 10 min 0,000 mm 225 W/m 15,6 C 22,5 C 9,7 km/h (2 Bft) 97 %
26.07.2014 17:20 22,8 C 22,5 C 22,8 C 65 % 1011,5 hPa 0,0 l/m 4,4 km/h (1 Bft) NW 307 10 min 0,000 mm 213 W/m 15,9 C 22,8 C 11,3 km/h (2 Bft) 98 %
26.07.2014 17:30 23,1 C 22,8 C 23,1 C 65 % 1011,5 hPa 0,0 l/m 2,2 km/h (1 Bft) N-NW 339 10 min 0,000 mm 216 W/m 16,2 C 23,1 C 9,7 km/h (2 Bft) 97 %
26.07.2014 17:40 23,1 C 23,1 C 23,1 C 61 % 1011,6 hPa 0,0 l/m 8,2 km/h (2 Bft) NW 309 10 min 0,000 mm 204 W/m 15,2 C 22,5 C 19,3 km/h (3 Bft) 97 %
26.07.2014 17:50 22,9 C 22,9 C 23,1 C 61 % 1011,6 hPa 0,0 l/m 8,7 km/h (2 Bft) NW 317 10 min 0,000 mm 206 W/m 15,0 C 22,2 C 20,9 km/h (4 Bft) 98 %
26.07.2014 18:00 22,8 C 22,8 C 22,9 C 63 % 1011,7 hPa 0,0 l/m 1,5 km/h (1 Bft) NW 318 10 min 0,152 mm 193 W/m 15,4 C 22,8 C 9,7 km/h (2 Bft) 97 %
26.07.2014 18:10 22,7 C 22,7 C 22,8 C 65 % 1011,8 hPa 0,0 l/m 1,6 km/h (1 Bft) NW 316 10 min 0,000 mm 190 W/m 15,8 C 22,7 C 9,7 km/h (2 Bft) 98 %
26.07.2014 18:20 22,6 C 22,6 C 22,7 C 67 % 1011,9 hPa 0,0 l/m 1,1 km/h (1 Bft) N-NW 336 10 min 0,000 mm 176 W/m 16,2 C 22,6 C 8,0 km/h (2 Bft) 97 %
26.07.2014 18:30 22,6 C 22,6 C 22,6 C 66 % 1011,9 hPa 0,0 l/m 0,3 km/h (0 Bft) NW 317 0 min 0,000 mm 127 W/m 15,9 C 22,6 C 6,4 km/h (2 Bft) 97 %
26.07.2014 18:40 22,4 C 22,4 C 22,6 C 69 % 1011,9 hPa 0,0 l/m 0,0 km/h (0 Bft) NW 317 0 min 0,000 mm 125 W/m 16,4 C 22,4 C 1,6 km/h (1 Bft) 98 %
26.07.2014 18:50 22,3 C 22,3 C 22,4 C 69 % 1011,7 hPa 0,0 l/m 0,4 km/h (0 Bft) W-NW 299 0 min 0,000 mm 127 W/m 16,3 C 22,3 C 6,4 km/h (2 Bft) 97 %
26.07.2014 19:00 22,2 C 22,2 C 22,3 C 70 % 1011,8 hPa 0,0 l/m 0,0 km/h (0 Bft) NW 307 0 min 0,102 mm 107 W/m 16,5 C 22,2 C 1,6 km/h (1 Bft) 98 %
26.07.2014 19:10 22,2 C 22,2 C 22,2 C 71 % 1011,8 hPa 0,0 l/m 1,0 km/h (0 Bft) NW 318 0 min 0,000 mm 97 W/m 16,7 C 22,2 C 6,4 km/h (2 Bft) 97 %
26.07.2014 19:20 22,2 C 22,2 C 22,2 C 72 % 1011,8 hPa 0,0 l/m 0,3 km/h (0 Bft) NW 321 0 min 0,000 mm 90 W/m 16,9 C 22,2 C 4,8 km/h (1 Bft) 98 %
26.07.2014 19:30 22,1 C 22,1 C 22,2 C 73 % 1011,7 hPa 0,0 l/m 0,0 km/h (0 Bft) NW 323 0 min 0,000 mm 88 W/m 17,0 C 22,1 C 1,6 km/h (1 Bft) 97 %
26.07.2014 19:40 22,0 C 22,0 C 22,1 C 75 % 1011,8 hPa 0,0 l/m 0,0 km/h (0 Bft) NW 323 0 min 0,000 mm 77 W/m 17,4 C 22,0 C 1,6 km/h (1 Bft) 98 %
26.07.2014 19:50 22,0 C 21,9 C 22,0 C 75 % 1011,8 hPa 0,0 l/m 0,3 km/h (0 Bft) NW 318 0 min 0,000 mm 67 W/m 17,4 C 22,0 C 6,4 km/h (2 Bft) 97 %
26.07.2014 20:00 21,9 C 21,9 C 22,0 C 76 % 1011,9 hPa 0,0 l/m 0,0 km/h (0 Bft) NW 318 0 min 0,051 mm 53 W/m 17,5 C 21,9 C 1,6 km/h (1 Bft) 97 %
26.07.2014 20:10 21,8 C 21,8 C 21,9 C 76 % 1012,1 hPa 0,0 l/m 0,0 km/h (0 Bft) W-NW 303 0 min 0,000 mm 37 W/m 17,4 C 21,8 C 1,6 km/h (1 Bft) 97 %
26.07.2014 20:20 21,6 C 21,6 C 21,8 C 76 % 1012,1 hPa 0,0 l/m 0,0 km/h (0 Bft) W-NW 303 0 min 0,000 mm 30 W/m 17,2 C 21,6 C 1,6 km/h (1 Bft) 97 %
26.07.2014 20:30 21,3 C 21,3 C 21,6 C 77 % 1012,2 hPa 0,0 l/m 0,0 km/h (0 Bft) NW 311 0 min 0,000 mm 23 W/m 17,1 C 21,3 C 1,6 km/h (1 Bft) 98 %
26.07.2014 20:40 21,1 C 21,1 C 21,3 C 77 % 1012,2 hPa 0,0 l/m 0,0 km/h (0 Bft) NW 311 0 min 0,000 mm 16 W/m 16,9 C 21,1 C 1,6 km/h (1 Bft) 97 %
26.07.2014 20:50 20,9 C 20,9 C 21,1 C 76 % 1012,2 hPa 0,0 l/m 0,3 km/h (0 Bft) N-NW 327 0 min 0,000 mm 11 W/m 16,5 C 20,9 C 4,8 km/h (1 Bft) 97 %
26.07.2014 21:00 20,7 C 20,7 C 20,9 C 77 % 1012,2 hPa 0,0 l/m 0,0 km/h (0 Bft) NW 324 0 min 0,025 mm 5 W/m 16,5 C 20,7 C 1,6 km/h (1 Bft) 98 %
26.07.2014 21:10 20,6 C 20,6 C 20,7 C 77 % 1012,3 hPa 0,0 l/m 0,0 km/h (0 Bft) NW 315 0 min 0,000 mm 5 W/m 16,4 C 20,6 C 1,6 km/h (1 Bft) 100 %
26.07.2014 21:20 20,4 C 20,4 C 20,6 C 79 % 1012,5 hPa 0,0 l/m 0,0 km/h (0 Bft) N 0 0 min 0,000 mm 0 W/m 16,6 C 20,4 C 0,0 km/h (0 Bft) 100 %
26.07.2014 21:30 20,2 C 20,2 C 20,3 C 79 % 1012,7 hPa 0,0 l/m 0,0 km/h (0 Bft) N 0 0 min 0,000 mm 0 W/m 16,4 C 20,2 C 0,0 km/h (0 Bft) 100 %
26.07.2014 21:40 20,0 C 20,0 C 20,2 C 79 % 1012,8 hPa 0,0 l/m 0,0 km/h (0 Bft) NW 315 0 min 0,000 mm 0 W/m 16,2 C 20,0 C 1,6 km/h (1 Bft) 100 %
26.07.2014 21:50 19,8 C 19,8 C 20,0 C 79 % 1012,9 hPa 0,0 l/m 0,0 km/h (0 Bft) N 0 0 min 0,000 mm 0 W/m 16,0 C 19,8 C 0,0 km/h (0 Bft) 100 %
26.07.2014 22:00 19,7 C 19,7 C 19,8 C 80 % 1013,0 hPa 0,0 l/m 0,0 km/h (0 Bft) W-NW 292 0 min 0,000 mm 0 W/m 16,1 C 19,7 C 1,6 km/h (1 Bft) 100 %
26.07.2014 22:10 19,6 C 19,6 C 19,7 C 81 % 1013,0 hPa 0,0 l/m 0,0 km/h (0 Bft) W-NW 292 0 min 0,000 mm 0 W/m 16,2 C 19,6 C 1,6 km/h (1 Bft) 100 %
26.07.2014 22:20 19,5 C 19,5 C 19,6 C 82 % 1013,0 hPa 0,0 l/m 0,0 km/h (0 Bft) W-NW 292 0 min 0,000 mm 0 W/m 16,3 C 19,5 C 3,2 km/h (1 Bft) 100 %
26.07.2014 22:30 19,4 C 19,4 C 19,5 C 83 % 1013,1 hPa 0,0 l/m 0,0 km/h (0 Bft) W-NW 292 0 min 0,000 mm 0 W/m 16,4 C 19,4 C 1,6 km/h (1 Bft) 100 %
26.07.2014 22:40 19,3 C 19,3 C 19,4 C 83 % 1013,1 hPa 0,0 l/m 0,0 km/h (0 Bft) W-NW 292 0 min 0,000 mm 0 W/m 16,3 C 19,3 C 1,6 km/h (1 Bft) 99 %
26.07.2014 22:50 19,1 C 19,1 C 19,3 C 84 % 1013,1 hPa 0,0 l/m 0,0 km/h (0 Bft) N 0 0 min 0,000 mm 0 W/m 16,3 C 19,1 C 0,0 km/h (0 Bft) 100 %
26.07.2014 23:00 19,0 C 19,0 C 19,1 C 85 % 1013,3 hPa 0,0 l/m 0,0 km/h (0 Bft) W-NW 292 0 min 0,025 mm 0 W/m 16,4 C 19,0 C 1,6 km/h (1 Bft) 100 %
26.07.2014 23:10 18,9 C 18,9 C 19,0 C 85 % 1013,4 hPa 0,0 l/m 0,0 km/h (0 Bft) NW 315 0 min 0,000 mm 0 W/m 16,3 C 18,9 C 4,8 km/h (1 Bft) 100 %
26.07.2014 23:20 18,9 C 18,9 C 18,9 C 85 % 1013,4 hPa 0,0 l/m 0,0 km/h (0 Bft) NW 315 0 min 0,000 mm 0 W/m 16,3 C 18,9 C 1,6 km/h (1 Bft) 100 %
26.07.2014 23:30 18,8 C 18,8 C 18,9 C 86 % 1013,3 hPa 0,0 l/m 0,0 km/h (0 Bft) W-NW 292 0 min 0,000 mm 0 W/m 16,4 C 18,8 C 3,2 km/h (1 Bft) 100 %
26.07.2014 23:40 18,7 C 18,7 C 18,8 C 86 % 1013,3 hPa 0,0 l/m 0,0 km/h (0 Bft) W-NW 292 0 min 0,000 mm 0 W/m 16,3 C 18,7 C 3,2 km/h (1 Bft) 100 %
26.07.2014 23:50 18,6 C 18,6 C 18,7 C 86 % 1013,4 hPa 0,0 l/m 0,0 km/h (0 Bft) W 270 0 min 0,000 mm 0 W/m 16,2 C 18,6 C 6,4 km/h (2 Bft) 100 %
_ Min-Zeit 05:50 05:50 06:00 17:40 04:00 - 00:00 - - - - - 05:50 05:50 00:00 08:20
Minimum _ 13,8 C 13,8 C 13,8 C 61 % 1010,3 hPa - 0,0 km/h (0 Bft) - - - - - 11,7 C 13,8 C 0,0 km/h (0 Bft) 91 %
_ Max-Zeit 13:40 13:40 13:40 02:10 23:10 00:00 14:50 - - 08:20 13:00 12:40 12:30 13:30 16:30 00:00
Maximum _ 24,5 C 24,4 C 24,5 C 87 % 1013,4 hPa 0,0 l/m 11,0 km/h
SW (2 Bft)
- - 10 min 0,432 mm 882 W/m 18,9 C 24,4 C 25,7 km/h
N-NW (4 Bft)
100 %
Durchschnitt _ 19,1 C 19,0 C 19,2 C 79 % 1011,5 hPa #0,0 l/m 1,6 km/h (1 Bft) S-SW - #9:00 h #2,387 mm 261 W/m 15,4 C 19,1 C 5,8 km/h (2 Bft) 99 %
PRIVATE WETTERSTATION BILLIGHEIM-ALLFELD - www.neckar-odenwald-wetter.de - Holger Sonntag